createdAt,value
2019-01-19T00:00:46.492Z,101418.44
2019-01-19T00:03:42.689Z,101417.66
2019-01-19T00:06:38.120Z,101413.32
2019-01-19T00:09:22.360Z,101408.36
2019-01-19T00:12:32.864Z,101410.20
2019-01-19T00:15:13.615Z,101406.26
2019-01-19T00:18:21.357Z,101409.31
2019-01-19T00:21:37.713Z,101382.52
2019-01-19T00:24:27.999Z,101401.81
2019-01-19T00:27:26.745Z,101402.03
2019-01-19T00:30:22.380Z,101410.30
2019-01-19T00:33:41.984Z,101401.59
2019-01-19T00:36:26.217Z,101407.00
2019-01-19T00:39:37.616Z,101399.13
2019-01-19T00:42:38.555Z,101403.68
2019-01-19T00:45:50.300Z,101405.31
2019-01-19T00:48:34.360Z,101405.95
2019-01-19T00:51:40.046Z,101397.80
2019-01-19T00:54:24.790Z,101402.53
2019-01-19T00:57:21.146Z,101404.58
2019-01-19T00:59:58.702Z,101402.76
2019-01-19T01:03:00.719Z,101396.81
2019-01-19T01:05:57.107Z,101394.88
2019-01-19T01:08:51.980Z,101401.00
2019-01-19T01:12:02.391Z,101397.59
2019-01-19T01:15:06.836Z,101397.62
2019-01-19T01:18:05.452Z,101405.15
2019-01-19T01:20:50.412Z,101402.69
2019-01-19T01:23:50.199Z,101402.01
2019-01-19T01:27:21.929Z,101398.14
2019-01-19T01:30:44.287Z,101408.73
2019-01-19T01:33:48.993Z,101408.69
2019-01-19T01:36:30.397Z,101405.28
2019-01-19T01:39:18.632Z,101404.14
2019-01-19T01:42:29.042Z,101402.53
2019-01-19T01:45:19.700Z,101404.18
2019-01-19T01:48:24.622Z,101392.58
2019-01-19T01:51:30.105Z,101390.00
2019-01-19T01:54:45.742Z,101395.58
2019-01-19T01:57:21.084Z,101396.04
2019-01-19T02:00:21.677Z,101405.83
2019-01-19T02:03:20.255Z,101405.38
2019-01-19T02:06:23.196Z,101405.03
2019-01-19T02:09:17.228Z,101403.49
2019-01-19T02:12:33.775Z,101410.25
2019-01-19T02:15:59.096Z,101395.01
2019-01-19T02:18:57.873Z,101391.70
2019-01-19T02:22:01.567Z,101394.81
2019-01-19T02:25:32.783Z,101398.80
2019-01-19T02:28:36.364Z,101385.41
2019-01-19T02:31:49.771Z,101390.09
2019-01-19T02:35:06.488Z,101390.19
2019-01-19T02:37:59.990Z,101388.77
2019-01-19T02:41:08.906Z,101202.70
2019-01-19T02:43:48.904Z,101383.80
2019-01-19T02:47:07.050Z,101381.41
2019-01-19T02:50:26.758Z,101385.16
2019-01-19T02:53:25.569Z,101387.66
2019-01-19T02:56:20.383Z,101403.95
2019-01-19T02:59:12.003Z,101394.89
2019-01-19T03:02:15.980Z,101400.86
2019-01-19T03:05:06.537Z,101390.88
2019-01-19T03:08:05.314Z,101199.82
2019-01-19T03:11:12.023Z,101379.42
2019-01-19T03:14:08.896Z,101390.19
2019-01-19T03:17:03.526Z,101391.80
2019-01-19T03:20:16.506Z,101388.70
2019-01-19T03:23:28.356Z,101388.33
2019-01-19T03:26:25.407Z,101387.04
2019-01-19T03:29:29.155Z,101390.56
2019-01-19T03:32:38.164Z,101388.33
2019-01-19T03:35:32.152Z,101385.48
2019-01-19T03:38:58.259Z,101383.55
2019-01-19T03:42:02.240Z,101386.91
2019-01-19T03:44:53.653Z,101392.95
2019-01-19T03:47:52.528Z,101386.98
2019-01-19T03:50:32.905Z,101396.77
2019-01-19T03:53:25.660Z,101386.64
2019-01-19T03:56:30.431Z,101385.35
2019-01-19T03:59:37.625Z,101394.10
2019-01-19T04:02:36.951Z,101384.44
2019-01-19T04:05:45.369Z,101388.58
2019-01-19T04:09:03.555Z,101383.43
2019-01-19T04:12:17.017Z,101392.42
2019-01-19T04:15:30.239Z,101396.67
2019-01-19T04:18:27.498Z,101392.95
2019-01-19T04:21:22.940Z,101396.89
2019-01-19T04:23:57.078Z,101389.35
2019-01-19T04:26:39.327Z,101390.64
2019-01-19T04:29:09.085Z,101389.35
2019-01-19T04:31:38.600Z,101381.37
2019-01-19T04:34:08.545Z,101389.80
2019-01-19T04:36:38.351Z,101388.70
2019-01-19T04:39:12.044Z,101387.98
2019-01-19T04:41:42.303Z,101382.96
2019-01-19T04:44:11.787Z,101377.22
2019-01-19T04:46:41.446Z,101379.66
2019-01-19T04:49:11.423Z,101380.66
2019-01-19T04:51:41.001Z,101380.55
2019-01-19T04:54:10.583Z,101382.95
2019-01-19T04:56:40.249Z,101378.23
2019-01-19T04:59:09.770Z,101388.30
2019-01-19T05:01:39.415Z,101387.61
2019-01-19T05:04:08.895Z,101381.52
2019-01-19T05:06:38.509Z,101383.28
2019-01-19T05:09:09.160Z,101384.17
2019-01-19T05:11:38.661Z,101379.41
2019-01-19T05:14:08.265Z,101386.58
2019-01-19T05:16:38.015Z,101387.58
2019-01-19T05:19:07.558Z,101387.15
2019-01-19T05:21:37.143Z,101394.09
2019-01-19T05:24:06.953Z,101392.45
2019-01-19T05:26:36.589Z,101391.38
2019-01-19T05:29:06.308Z,101386.92
2019-01-19T05:31:35.880Z,101391.39
2019-01-19T05:34:05.462Z,101381.80
2019-01-19T05:36:38.469Z,101382.77
2019-01-19T05:39:08.574Z,101379.99
2019-01-19T05:41:38.186Z,101385.26
2019-01-19T05:44:07.867Z,101385.98
2019-01-19T05:46:37.803Z,101387.67
2019-01-19T05:49:07.366Z,101386.44
2019-01-19T05:51:36.925Z,101388.69
2019-01-19T05:54:06.720Z,101384.41
2019-01-19T05:56:36.537Z,101384.96
2019-01-19T05:59:06.235Z,101386.02
2019-01-19T06:01:35.883Z,101389.67
2019-01-19T06:04:05.652Z,101392.02
2019-01-19T06:06:35.336Z,101393.15
2019-01-19T06:09:07.898Z,101385.70
2019-01-19T06:11:37.452Z,101395.70
2019-01-19T06:14:07.306Z,101395.95
2019-01-19T06:16:37.104Z,101393.13
2019-01-19T06:19:06.983Z,101392.02
2019-01-19T06:21:41.996Z,101391.95
2019-01-19T06:24:11.791Z,101398.97
2019-01-19T06:26:41.407Z,101392.33
2019-01-19T06:29:11.407Z,101400.70
2019-01-19T06:31:41.021Z,101407.16
2019-01-19T06:34:10.705Z,101406.02
2019-01-19T06:36:40.597Z,101408.80
2019-01-19T06:39:11.762Z,101407.28
2019-01-19T06:41:41.670Z,101408.42
2019-01-19T06:44:11.333Z,101407.64
2019-01-19T06:46:40.912Z,101409.95
2019-01-19T06:49:11.037Z,101411.25
2019-01-19T06:51:40.752Z,101408.77
2019-01-19T06:54:10.928Z,101410.63
2019-01-19T06:56:41.122Z,101417.11
2019-01-19T06:59:17.314Z,101415.88
2019-01-19T07:01:42.290Z,101412.59
2019-01-19T07:04:11.836Z,101410.61
2019-01-19T07:06:41.498Z,101412.61
2019-01-19T07:09:11.302Z,101412.63
2019-01-19T07:11:41.270Z,101418.69
2019-01-19T07:14:11.049Z,101419.66
2019-01-19T07:16:40.726Z,101413.63
2019-01-19T07:19:10.369Z,101420.95
2019-01-19T07:21:40.125Z,101417.61
2019-01-19T07:24:09.759Z,101413.39
2019-01-19T07:26:39.488Z,101411.07
2019-01-19T07:29:09.395Z,101409.96
2019-01-19T07:31:38.935Z,101415.92
2019-01-19T07:34:08.528Z,101418.25
2019-01-19T07:36:38.197Z,101423.48
2019-01-19T07:39:08.978Z,101424.92
2019-01-19T07:41:38.528Z,101429.04
2019-01-19T07:44:08.369Z,101420.84
2019-01-19T07:46:38.823Z,101420.48
2019-01-19T07:49:08.506Z,101420.02
2019-01-19T07:51:38.515Z,101427.47
2019-01-19T07:54:08.558Z,101438.44
2019-01-19T07:56:38.541Z,101431.85
2019-01-19T07:59:08.152Z,101442.11
2019-01-19T08:01:37.628Z,101436.33
2019-01-19T08:04:07.350Z,101442.63
2019-01-19T08:06:37.342Z,101440.23
2019-01-19T08:09:08.955Z,101436.11
2019-01-19T08:11:39.265Z,101448.33
2019-01-19T08:14:08.956Z,101435.42
2019-01-19T08:16:38.652Z,101434.66
2019-01-19T08:19:08.512Z,101439.03
2019-01-19T08:21:38.325Z,101441.80
2019-01-19T08:24:08.042Z,101450.00
2019-01-19T08:26:38.261Z,101445.42
2019-01-19T08:29:08.250Z,101450.70
2019-01-19T08:31:37.841Z,101454.84
2019-01-19T08:34:07.842Z,101445.26
2019-01-19T08:36:37.614Z,101449.84
2019-01-19T08:39:09.362Z,101452.93
2019-01-19T08:41:39.148Z,101462.84
2019-01-19T08:44:08.912Z,101455.98
2019-01-19T08:46:38.714Z,101463.91
2019-01-19T08:49:08.346Z,101459.47
2019-01-19T08:51:37.861Z,101464.84
2019-01-19T08:54:07.688Z,101468.13
2019-01-19T08:56:38.207Z,101464.22
2019-01-19T08:59:07.949Z,101471.94
2019-01-19T09:01:37.552Z,101479.02
2019-01-19T09:04:07.176Z,101475.80
2019-01-19T09:06:37.061Z,101477.22
2019-01-19T09:09:08.560Z,101476.12
2019-01-19T09:11:38.351Z,101476.72
2019-01-19T09:14:07.958Z,101471.26
2019-01-19T09:16:39.906Z,101484.38
2019-01-19T09:19:09.149Z,101417.38
2019-01-19T09:21:38.849Z,101480.38
2019-01-19T09:24:33.581Z,101485.00
2019-01-19T09:27:03.220Z,101488.53
2019-01-19T09:29:32.850Z,101481.73
2019-01-19T09:32:02.986Z,101484.48
2019-01-19T09:34:34.087Z,101485.42
2019-01-19T09:37:04.110Z,101487.24
2019-01-19T09:39:33.780Z,101485.53
2019-01-19T09:42:03.441Z,101488.25
2019-01-19T09:44:33.364Z,101483.59
2019-01-19T09:47:03.001Z,101489.28
2019-01-19T09:49:32.824Z,101492.11
2019-01-19T09:52:02.461Z,101490.44
2019-01-19T09:54:32.181Z,101489.70
2019-01-19T09:57:01.858Z,101491.48
2019-01-19T09:59:31.580Z,101501.19
2019-01-19T10:02:01.475Z,101500.41
2019-01-19T10:04:31.676Z,101498.80
2019-01-19T10:07:01.378Z,101500.63
2019-01-19T10:09:31.015Z,101500.84
2019-01-19T10:12:00.703Z,101501.39
2019-01-19T10:14:30.310Z,101503.59
2019-01-19T10:17:00.066Z,101498.52
2019-01-19T10:19:29.662Z,101500.75
2019-01-19T10:21:59.173Z,101498.28
2019-01-19T10:24:28.825Z,101490.20
2019-01-19T10:26:58.367Z,101487.56
2019-01-19T10:29:28.192Z,101488.59
2019-01-19T10:31:58.041Z,101484.30
2019-01-19T10:34:27.629Z,101496.52
2019-01-19T10:36:57.299Z,101494.73
2019-01-19T10:39:27.001Z,101482.73
2019-01-19T10:41:56.536Z,101490.44
2019-01-19T10:44:26.233Z,101490.81
2019-01-19T10:46:55.906Z,101495.38
2019-01-19T10:49:25.347Z,101490.75
2019-01-19T10:51:59.338Z,101490.75
2019-01-19T10:54:26.306Z,101487.66
2019-01-19T10:56:55.878Z,101488.48
2019-01-19T10:59:25.429Z,101485.88
2019-01-19T11:01:55.223Z,101483.99
2019-01-19T11:04:24.852Z,101491.75
2019-01-19T11:06:54.452Z,101481.91
2019-01-19T11:09:24.030Z,101482.73
2019-01-19T11:11:53.584Z,101482.83
2019-01-19T11:14:23.161Z,101476.86
2019-01-19T11:16:52.969Z,101477.34
2019-01-19T11:19:22.473Z,101476.11
2019-01-19T11:21:52.070Z,101469.31
2019-01-19T11:24:22.113Z,101465.05
2019-01-19T11:26:51.667Z,101466.42
2019-01-19T11:29:21.220Z,101472.30
2019-01-19T11:31:50.968Z,101475.38
2019-01-19T11:34:20.922Z,101462.25
2019-01-19T11:36:50.547Z,101461.42
2019-01-19T11:39:20.262Z,101458.23
2019-01-19T11:41:49.794Z,101452.71
2019-01-19T11:44:19.360Z,101455.07
2019-01-19T11:46:49.319Z,101450.86
2019-01-19T11:49:19.426Z,101450.97
2019-01-19T11:51:48.879Z,101453.41
2019-01-19T11:54:18.906Z,101458.72
2019-01-19T11:56:48.525Z,101445.84
2019-01-19T11:59:18.105Z,101451.44
2019-01-19T12:01:47.914Z,101450.20
2019-01-19T12:04:17.616Z,101447.63
2019-01-19T12:06:47.325Z,101451.51
2019-01-19T12:09:17.045Z,101447.63
2019-01-19T12:11:46.585Z,101449.20
2019-01-19T12:14:16.463Z,101447.70
2019-01-19T12:16:46.236Z,101452.53
2019-01-19T12:19:16.119Z,101446.50
2019-01-19T12:21:46.093Z,101444.81
2019-01-19T12:24:16.165Z,101440.52
2019-01-19T12:26:45.884Z,101441.82
2019-01-19T12:29:15.462Z,101446.59
2019-01-19T12:31:45.596Z,101442.20
2019-01-19T12:34:15.378Z,101439.25
2019-01-19T12:36:45.353Z,101440.27
2019-01-19T12:39:16.279Z,101446.97
2019-01-19T12:41:46.163Z,101446.14
2019-01-19T12:44:15.900Z,101439.53
2019-01-19T12:46:45.825Z,101432.09
2019-01-19T12:49:15.395Z,101432.81
2019-01-19T12:51:45.298Z,101434.40
2019-01-19T12:54:15.305Z,101429.50
2019-01-19T12:56:45.292Z,101423.16
2019-01-19T12:59:14.967Z,101419.28
2019-01-19T13:01:44.892Z,101417.67
2019-01-19T13:04:14.883Z,101421.00
2019-01-19T13:07:00.705Z,101428.00
2019-01-19T13:09:51.879Z,101427.17
2019-01-19T13:12:48.866Z,101434.27
2019-01-19T13:15:50.804Z,101434.13
2019-01-19T13:18:52.742Z,101433.69
2019-01-19T13:21:57.504Z,101431.49
2019-01-19T13:24:44.985Z,101426.41
2019-01-19T13:27:50.994Z,101434.34
2019-01-19T13:30:55.771Z,101423.05
2019-01-19T13:33:39.159Z,101430.87
2019-01-19T13:36:52.444Z,101428.26
2019-01-19T13:39:51.420Z,101433.82
2019-01-19T13:42:55.449Z,101434.13
2019-01-19T13:46:15.267Z,101421.28
2019-01-19T13:49:06.765Z,101419.05
2019-01-19T13:52:03.610Z,101416.90
2019-01-19T13:55:20.157Z,101419.81
2019-01-19T13:58:31.031Z,101424.36
2019-01-19T14:01:39.846Z,101428.38
2019-01-19T14:04:47.385Z,101420.37
2019-01-19T14:07:50.673Z,101415.16
2019-01-19T14:10:44.369Z,101416.68
2019-01-19T14:13:41.182Z,101416.00
2019-01-19T14:17:00.807Z,101406.65
2019-01-19T14:20:08.921Z,101414.74
2019-01-19T14:23:37.501Z,101412.65
2019-01-19T14:26:42.225Z,101412.65
2019-01-19T14:29:45.294Z,101404.45
2019-01-19T14:32:49.622Z,101418.92
2019-01-19T14:35:35.079Z,101410.59
2019-01-19T14:38:36.516Z,101403.50
2019-01-19T14:41:56.899Z,101407.68
2019-01-19T14:45:15.432Z,101409.94
2019-01-19T14:48:23.098Z,101399.87
2019-01-19T14:51:35.842Z,101406.66
2019-01-19T14:54:47.555Z,101398.77
2019-01-19T14:57:52.135Z,101410.00
2019-01-19T15:00:59.612Z,101409.08
2019-01-19T15:03:41.653Z,101413.09
2019-01-19T15:07:16.200Z,101408.81
2019-01-19T15:10:16.401Z,101411.24
2019-01-19T15:13:07.841Z,101410.63
2019-01-19T15:15:58.265Z,101409.94
2019-01-19T15:18:52.605Z,101403.94
2019-01-19T15:22:14.386Z,101406.78
2019-01-19T15:25:07.986Z,101404.17
2019-01-19T15:28:15.058Z,101408.27
2019-01-19T15:31:19.874Z,101403.47
2019-01-19T15:34:25.398Z,101404.36
2019-01-19T15:37:19.410Z,101391.61
2019-01-19T15:40:48.149Z,101398.77
2019-01-19T15:44:10.335Z,101381.16
2019-01-19T15:47:06.429Z,101397.22
2019-01-19T15:50:23.163Z,101398.01
2019-01-19T15:53:30.665Z,101396.70
2019-01-19T15:56:25.365Z,101398.55
2019-01-19T15:59:24.646Z,101401.03
2019-01-19T16:02:34.775Z,101396.34
2019-01-19T16:05:32.509Z,101397.44
2019-01-19T16:08:50.639Z,101394.08
2019-01-19T16:11:48.913Z,101388.83
2019-01-19T16:15:01.476Z,101389.17
2019-01-19T16:18:00.911Z,101385.20
2019-01-19T16:20:55.688Z,101385.92
2019-01-19T16:24:11.396Z,101385.20
2019-01-19T16:27:42.805Z,101379.13
2019-01-19T16:30:32.468Z,101386.02
2019-01-19T16:34:09.802Z,101390.85
2019-01-19T16:37:11.982Z,101387.70
2019-01-19T16:40:03.709Z,101385.03
2019-01-19T16:43:12.734Z,101393.45
2019-01-19T16:46:26.084Z,101389.99
2019-01-19T16:49:41.199Z,101387.66
2019-01-19T16:52:55.788Z,101388.14
2019-01-19T16:56:00.358Z,101383.72
2019-01-19T16:59:10.073Z,101392.22
2019-01-19T17:02:20.603Z,101393.07
2019-01-19T17:05:46.608Z,101392.22
2019-01-19T17:08:45.050Z,101397.52
2019-01-19T17:11:59.575Z,101396.98
2019-01-19T17:14:58.454Z,101397.19
2019-01-19T17:18:10.393Z,101397.74
2019-01-19T17:21:27.340Z,101395.62
2019-01-19T17:24:21.917Z,101401.00
2019-01-19T17:27:31.434Z,101397.56
2019-01-19T17:30:53.690Z,101390.68
2019-01-19T17:33:47.477Z,101397.84
2019-01-19T17:36:44.519Z,101392.63
2019-01-19T17:39:57.123Z,101396.27
2019-01-19T17:43:07.695Z,101389.84
2019-01-19T17:46:23.292Z,101390.23
2019-01-19T17:49:29.632Z,101385.97
2019-01-19T17:52:36.235Z,101388.64
2019-01-19T17:55:51.639Z,101383.78
2019-01-19T17:58:48.706Z,101386.83
2019-01-19T18:01:45.805Z,101384.16
2019-01-19T18:04:42.019Z,101388.58
2019-01-19T18:07:31.778Z,101382.98
2019-01-19T18:10:40.807Z,101400.38
2019-01-19T18:14:19.751Z,101382.13
2019-01-19T18:17:24.448Z,101390.39
2019-01-19T18:20:18.418Z,101388.64
2019-01-19T18:23:26.754Z,101384.29
2019-01-19T18:26:07.215Z,101387.41
2019-01-19T18:29:25.305Z,101387.98
2019-01-19T18:32:04.492Z,101388.91
2019-01-19T18:35:19.080Z,101396.92
2019-01-19T18:38:17.661Z,101395.17
2019-01-19T18:41:18.654Z,101393.55
2019-01-19T18:44:21.259Z,101394.89
2019-01-19T18:47:33.656Z,101403.78
2019-01-19T18:50:47.346Z,101394.78
2019-01-19T18:54:02.274Z,101401.39
2019-01-19T18:57:03.923Z,101400.78
2019-01-19T19:00:17.623Z,101388.30
2019-01-19T19:03:35.641Z,101389.47
2019-01-19T19:06:46.919Z,101395.44
2019-01-19T19:09:49.087Z,101398.11
2019-01-19T19:12:43.588Z,101395.16
2019-01-19T19:15:46.739Z,101399.23
2019-01-19T19:19:03.385Z,101401.39
2019-01-19T19:22:14.446Z,101398.44
2019-01-19T19:25:13.117Z,101391.00
2019-01-19T19:28:19.425Z,101395.52
2019-01-19T19:31:19.702Z,101392.44
2019-01-19T19:33:57.390Z,101396.82
2019-01-19T19:37:00.904Z,101400.73
2019-01-19T19:39:55.631Z,101401.11
2019-01-19T19:42:40.636Z,101393.29
2019-01-19T19:46:03.793Z,101399.33
2019-01-19T19:49:11.583Z,101398.41
2019-01-19T19:52:06.813Z,101400.09
2019-01-19T19:54:37.257Z,101400.71
2019-01-19T19:57:07.388Z,101398.11
2019-01-19T19:59:37.027Z,101401.57
2019-01-19T20:02:07.006Z,101402.27
2019-01-19T20:04:36.816Z,101413.47
2019-01-19T20:07:07.041Z,101413.95
2019-01-19T20:09:37.253Z,101405.11
2019-01-19T20:12:10.541Z,101413.30
2019-01-19T20:14:40.543Z,101410.32
2019-01-19T20:17:10.681Z,101406.86
2019-01-19T20:19:40.377Z,101412.68
2019-01-19T20:22:10.958Z,101407.98
2019-01-19T20:24:40.635Z,101403.16
2019-01-19T20:27:10.399Z,101414.77
2019-01-19T20:29:40.483Z,101410.83
2019-01-19T20:32:10.475Z,101409.05
2019-01-19T20:34:40.556Z,101411.14
2019-01-19T20:37:11.575Z,101418.69
2019-01-19T20:39:41.327Z,101417.89
2019-01-19T20:42:11.074Z,101417.55
2019-01-19T20:44:41.131Z,101415.91
2019-01-19T20:47:10.826Z,101412.00
2019-01-19T20:49:40.383Z,101418.52
2019-01-19T20:52:10.311Z,101417.66
2019-01-19T20:54:41.197Z,101425.33
2019-01-19T20:57:11.790Z,101423.41
2019-01-19T20:59:41.737Z,101429.00
2019-01-19T21:02:11.706Z,101421.97
2019-01-19T21:04:41.472Z,101420.16
2019-01-19T21:07:12.783Z,101424.81
2019-01-19T21:09:42.885Z,101424.81
2019-01-19T21:12:12.698Z,101422.55
2019-01-19T21:14:42.822Z,101426.31
2019-01-19T21:17:13.008Z,101419.80
2019-01-19T21:19:43.122Z,101422.92
2019-01-19T21:22:13.039Z,101420.20
2019-01-19T21:24:42.998Z,101417.61
2019-01-19T21:27:13.250Z,101416.03
2019-01-19T21:29:43.107Z,101412.47
2019-01-19T21:32:13.402Z,101411.69
2019-01-19T21:34:43.106Z,101418.91
2019-01-19T21:37:13.118Z,101423.67
2019-01-19T21:39:42.988Z,101415.22
2019-01-19T21:42:13.033Z,101412.06
2019-01-19T21:44:43.139Z,101416.67
2019-01-19T21:47:13.685Z,101409.62
2019-01-19T21:49:43.408Z,101409.62
2019-01-19T21:52:13.181Z,101418.25
2019-01-19T21:54:43.290Z,101417.84
2019-01-19T21:57:12.993Z,101417.39
2019-01-19T21:59:43.161Z,101416.02
2019-01-19T22:02:13.327Z,101415.20
2019-01-19T22:04:43.114Z,101428.66
2019-01-19T22:07:13.137Z,101423.19
2019-01-19T22:09:43.434Z,101427.54
2019-01-19T22:12:13.102Z,101420.06
2019-01-19T22:14:43.035Z,101422.64
2019-01-19T22:17:13.097Z,101421.70
2019-01-19T22:19:43.013Z,101424.75
2019-01-19T22:22:13.076Z,101420.52
2019-01-19T22:24:43.076Z,101423.97
2019-01-19T22:27:14.779Z,101425.34
2019-01-19T22:29:44.715Z,101423.19
2019-01-19T22:32:14.500Z,101418.05
2019-01-19T22:34:44.433Z,101417.81
2019-01-19T22:37:14.485Z,101292.70
2019-01-19T22:39:44.176Z,101414.02
2019-01-19T22:42:13.878Z,101426.00
2019-01-19T22:44:43.703Z,101423.41
2019-01-19T22:47:13.615Z,101423.84
2019-01-19T22:49:43.416Z,101425.48
2019-01-19T22:52:13.275Z,101431.48
2019-01-19T22:54:43.001Z,101439.70
2019-01-19T22:57:12.655Z,101436.55
2019-01-19T22:59:42.496Z,101433.16
2019-01-19T23:02:13.803Z,101439.84
2019-01-19T23:04:44.151Z,101433.23
2019-01-19T23:07:13.972Z,101442.00
2019-01-19T23:09:43.561Z,101437.14
2019-01-19T23:12:13.520Z,101435.83
2019-01-19T23:14:43.320Z,101438.55
2019-01-19T23:17:13.040Z,101446.36
2019-01-19T23:19:42.881Z,101441.73
2019-01-19T23:22:12.893Z,101438.28
2019-01-19T23:24:42.713Z,101441.50
2019-01-19T23:27:12.696Z,101437.63
2019-01-19T23:29:42.331Z,101438.90
2019-01-19T23:32:11.887Z,101438.11
2019-01-19T23:34:41.771Z,101436.81
2019-01-19T23:37:11.290Z,101433.66
2019-01-19T23:39:40.873Z,101444.14
2019-01-19T23:42:10.694Z,101444.73
2019-01-19T23:44:40.328Z,101445.00
2019-01-19T23:47:09.950Z,101435.51
2019-01-19T23:49:39.657Z,101437.36
2019-01-19T23:52:09.480Z,101440.82
2019-01-19T23:54:39.263Z,101433.28
2019-01-19T23:57:09.010Z,101434.58
2019-01-19T23:59:38.663Z,101430.27
